sensor_id;sensor_type;location;lat;lon;timestamp;P1;durP1;ratioP1;P2;durP2;ratioP2
60292;SDS011;52402;52.670;6.750;2023-03-16T00:02:00;11.38;;;5.40;;
60292;SDS011;52402;52.670;6.750;2023-03-16T00:04:26;11.43;;;5.57;;
60292;SDS011;52402;52.670;6.750;2023-03-16T00:06:51;9.80;;;5.18;;
60292;SDS011;52402;52.670;6.750;2023-03-16T00:09:17;9.65;;;5.78;;
60292;SDS011;52402;52.670;6.750;2023-03-16T00:11:43;10.40;;;5.55;;
60292;SDS011;52402;52.670;6.750;2023-03-16T00:14:08;9.63;;;5.55;;
60292;SDS011;52402;52.670;6.750;2023-03-16T00:16:34;12.90;;;5.63;;
60292;SDS011;52402;52.670;6.750;2023-03-16T00:19:00;9.63;;;5.22;;
60292;SDS011;52402;52.670;6.750;2023-03-16T00:21:27;12.18;;;5.63;;
60292;SDS011;52402;52.670;6.750;2023-03-16T00:23:54;11.05;;;5.50;;
60292;SDS011;52402;52.670;6.750;2023-03-16T00:26:20;10.25;;;5.30;;
60292;SDS011;52402;52.670;6.750;2023-03-16T00:28:46;10.13;;;5.05;;
60292;SDS011;52402;52.670;6.750;2023-03-16T00:31:12;10.98;;;5.25;;
60292;SDS011;52402;52.670;6.750;2023-03-16T00:33:38;8.95;;;4.97;;
60292;SDS011;52402;52.670;6.750;2023-03-16T00:36:06;12.23;;;5.75;;
60292;SDS011;52402;52.670;6.750;2023-03-16T00:38:42;8.52;;;5.05;;
60292;SDS011;52402;52.670;6.750;2023-03-16T00:41:12;10.45;;;5.55;;
60292;SDS011;52402;52.670;6.750;2023-03-16T00:43:39;10.80;;;5.13;;
60292;SDS011;52402;52.670;6.750;2023-03-16T00:46:12;12.27;;;5.70;;
60292;SDS011;52402;52.670;6.750;2023-03-16T00:48:41;11.98;;;5.28;;
60292;SDS011;52402;52.670;6.750;2023-03-16T00:51:13;9.60;;;5.35;;
60292;SDS011;52402;52.670;6.750;2023-03-16T00:53:41;10.52;;;5.43;;
60292;SDS011;52402;52.670;6.750;2023-03-16T00:56:08;10.23;;;5.63;;
60292;SDS011;52402;52.670;6.750;2023-03-16T00:58:37;10.65;;;5.07;;
60292;SDS011;52402;52.670;6.750;2023-03-16T01:01:07;10.38;;;5.88;;
60292;SDS011;52402;52.670;6.750;2023-03-16T01:03:35;9.65;;;5.28;;
60292;SDS011;52402;52.670;6.750;2023-03-16T01:06:04;9.50;;;5.82;;
60292;SDS011;52402;52.670;6.750;2023-03-16T01:11:01;9.60;;;5.30;;
60292;SDS011;52402;52.670;6.750;2023-03-16T01:13:30;10.57;;;5.80;;
60292;SDS011;52402;52.670;6.750;2023-03-16T01:15:56;11.70;;;6.20;;
60292;SDS011;52402;52.670;6.750;2023-03-16T01:18:23;9.30;;;5.88;;
60292;SDS011;52402;52.670;6.750;2023-03-16T01:20:49;10.10;;;5.72;;
60292;SDS011;52402;52.670;6.750;2023-03-16T01:23:18;13.48;;;5.93;;
60292;SDS011;52402;52.670;6.750;2023-03-16T01:25:45;9.88;;;5.47;;
60292;SDS011;52402;52.670;6.750;2023-03-16T01:28:20;12.77;;;6.13;;
60292;SDS011;52402;52.670;6.750;2023-03-16T01:30:52;10.90;;;5.93;;
60292;SDS011;52402;52.670;6.750;2023-03-16T01:33:21;9.18;;;5.03;;
60292;SDS011;52402;52.670;6.750;2023-03-16T01:35:54;12.48;;;5.30;;
60292;SDS011;52402;52.670;6.750;2023-03-16T01:38:21;10.45;;;5.75;;
60292;SDS011;52402;52.670;6.750;2023-03-16T01:40:48;12.52;;;5.70;;
60292;SDS011;52402;52.670;6.750;2023-03-16T01:43:16;9.18;;;5.35;;
60292;SDS011;52402;52.670;6.750;2023-03-16T01:48:32;9.55;;;5.97;;
60292;SDS011;52402;52.670;6.750;2023-03-16T01:51:09;9.80;;;5.15;;
60292;SDS011;52402;52.670;6.750;2023-03-16T01:53:35;9.02;;;5.20;;
60292;SDS011;52402;52.670;6.750;2023-03-16T01:56:03;8.50;;;5.35;;
60292;SDS011;52402;52.670;6.750;2023-03-16T02:00:59;8.32;;;5.30;;
60292;SDS011;52402;52.670;6.750;2023-03-16T02:03:25;8.18;;;5.28;;
60292;SDS011;52402;52.670;6.750;2023-03-16T02:05:53;10.90;;;5.28;;
60292;SDS011;52402;52.670;6.750;2023-03-16T02:08:23;9.40;;;4.97;;
60292;SDS011;52402;52.670;6.750;2023-03-16T02:10:50;10.40;;;5.70;;
60292;SDS011;52402;52.670;6.750;2023-03-16T02:13:23;8.65;;;5.10;;
60292;SDS011;52402;52.670;6.750;2023-03-16T02:15:50;9.82;;;5.68;;
60292;SDS011;52402;52.670;6.750;2023-03-16T02:18:17;9.43;;;5.50;;
60292;SDS011;52402;52.670;6.750;2023-03-16T02:20:49;8.90;;;5.45;;
60292;SDS011;52402;52.670;6.750;2023-03-16T02:23:28;9.52;;;5.70;;
60292;SDS011;52402;52.670;6.750;2023-03-16T02:31:21;9.60;;;5.22;;
60292;SDS011;52402;52.670;6.750;2023-03-16T02:33:47;9.30;;;5.45;;
60292;SDS011;52402;52.670;6.750;2023-03-16T02:36:16;8.90;;;5.63;;
60292;SDS011;52402;52.670;6.750;2023-03-16T02:38:43;10.43;;;5.53;;
60292;SDS011;52402;52.670;6.750;2023-03-16T02:43:36;9.52;;;5.38;;
60292;SDS011;52402;52.670;6.750;2023-03-16T02:46:03;11.75;;;5.55;;
60292;SDS011;52402;52.670;6.750;2023-03-16T02:48:39;9.65;;;5.40;;
60292;SDS011;52402;52.670;6.750;2023-03-16T02:51:21;10.23;;;5.60;;
60292;SDS011;52402;52.670;6.750;2023-03-16T02:53:47;11.63;;;5.88;;
60292;SDS011;52402;52.670;6.750;2023-03-16T02:56:13;9.05;;;6.07;;
60292;SDS011;52402;52.670;6.750;2023-03-16T02:58:38;9.65;;;5.43;;
60292;SDS011;52402;52.670;6.750;2023-03-16T03:01:04;10.10;;;5.50;;
60292;SDS011;52402;52.670;6.750;2023-03-16T03:03:30;8.43;;;5.32;;
60292;SDS011;52402;52.670;6.750;2023-03-16T03:05:58;9.57;;;6.00;;
60292;SDS011;52402;52.670;6.750;2023-03-16T03:08:24;9.70;;;5.85;;
60292;SDS011;52402;52.670;6.750;2023-03-16T03:10:49;10.20;;;6.38;;
60292;SDS011;52402;52.670;6.750;2023-03-16T03:13:15;9.35;;;6.10;;
60292;SDS011;52402;52.670;6.750;2023-03-16T03:15:41;10.35;;;6.30;;
60292;SDS011;52402;52.670;6.750;2023-03-16T03:18:06;11.13;;;6.03;;
60292;SDS011;52402;52.670;6.750;2023-03-16T03:20:33;10.32;;;6.13;;
60292;SDS011;52402;52.670;6.750;2023-03-16T03:22:58;9.57;;;6.03;;
60292;SDS011;52402;52.670;6.750;2023-03-16T03:25:24;10.23;;;5.97;;
60292;SDS011;52402;52.670;6.750;2023-03-16T03:27:50;11.88;;;6.45;;
60292;SDS011;52402;52.670;6.750;2023-03-16T03:30:19;8.52;;;5.90;;
60292;SDS011;52402;52.670;6.750;2023-03-16T03:32:46;9.23;;;6.35;;
60292;SDS011;52402;52.670;6.750;2023-03-16T03:35:13;8.13;;;5.72;;
60292;SDS011;52402;52.670;6.750;2023-03-16T03:37:41;9.48;;;6.25;;
60292;SDS011;52402;52.670;6.750;2023-03-16T03:40:10;10.23;;;6.25;;
60292;SDS011;52402;52.670;6.750;2023-03-16T03:42:38;10.00;;;5.88;;
60292;SDS011;52402;52.670;6.750;2023-03-16T03:45:04;11.32;;;6.78;;
60292;SDS011;52402;52.670;6.750;2023-03-16T03:47:30;10.13;;;6.13;;
60292;SDS011;52402;52.670;6.750;2023-03-16T03:49:56;10.80;;;6.30;;
60292;SDS011;52402;52.670;6.750;2023-03-16T03:52:22;10.77;;;6.47;;
60292;SDS011;52402;52.670;6.750;2023-03-16T03:54:47;9.95;;;5.95;;
60292;SDS011;52402;52.670;6.750;2023-03-16T03:57:13;8.38;;;6.20;;
60292;SDS011;52402;52.670;6.750;2023-03-16T03:59:38;8.55;;;5.65;;
60292;SDS011;52402;52.670;6.750;2023-03-16T04:02:11;10.75;;;6.40;;
60292;SDS011;52402;52.670;6.750;2023-03-16T04:04:37;6.75;;;5.30;;
60292;SDS011;52402;52.670;6.750;2023-03-16T04:07:03;10.52;;;6.45;;
60292;SDS011;52402;52.670;6.750;2023-03-16T04:09:29;9.30;;;6.00;;
60292;SDS011;52402;52.670;6.750;2023-03-16T04:11:58;9.48;;;5.68;;
60292;SDS011;52402;52.670;6.750;2023-03-16T04:14:24;9.27;;;5.97;;
60292;SDS011;52402;52.670;6.750;2023-03-16T04:16:50;9.70;;;5.93;;
60292;SDS011;52402;52.670;6.750;2023-03-16T04:19:15;9.07;;;6.13;;
60292;SDS011;52402;52.670;6.750;2023-03-16T04:21:41;8.18;;;5.70;;
60292;SDS011;52402;52.670;6.750;2023-03-16T04:24:07;9.60;;;6.13;;
60292;SDS011;52402;52.670;6.750;2023-03-16T04:26:32;9.32;;;5.88;;
60292;SDS011;52402;52.670;6.750;2023-03-16T04:28:58;8.52;;;5.53;;
60292;SDS011;52402;52.670;6.750;2023-03-16T04:31:24;8.38;;;6.03;;
60292;SDS011;52402;52.670;6.750;2023-03-16T04:33:50;9.55;;;6.22;;
60292;SDS011;52402;52.670;6.750;2023-03-16T04:36:18;8.52;;;6.07;;
60292;SDS011;52402;52.670;6.750;2023-03-16T04:38:48;12.17;;;6.57;;
60292;SDS011;52402;52.670;6.750;2023-03-16T04:41:14;11.23;;;5.93;;
60292;SDS011;52402;52.670;6.750;2023-03-16T04:43:40;8.70;;;5.90;;
60292;SDS011;52402;52.670;6.750;2023-03-16T04:46:07;8.32;;;5.93;;
60292;SDS011;52402;52.670;6.750;2023-03-16T04:48:33;10.00;;;6.20;;
60292;SDS011;52402;52.670;6.750;2023-03-16T04:50:59;8.63;;;5.47;;
60292;SDS011;52402;52.670;6.750;2023-03-16T04:53:27;8.27;;;5.93;;
60292;SDS011;52402;52.670;6.750;2023-03-16T04:55:59;10.57;;;5.97;;
60292;SDS011;52402;52.670;6.750;2023-03-16T04:58:26;10.55;;;6.30;;
60292;SDS011;52402;52.670;6.750;2023-03-16T05:00:52;9.27;;;6.32;;
60292;SDS011;52402;52.670;6.750;2023-03-16T05:03:18;9.70;;;6.10;;
60292;SDS011;52402;52.670;6.750;2023-03-16T05:05:45;8.48;;;5.93;;
60292;SDS011;52402;52.670;6.750;2023-03-16T05:08:10;8.50;;;6.03;;
60292;SDS011;52402;52.670;6.750;2023-03-16T05:10:36;7.88;;;5.60;;
60292;SDS011;52402;52.670;6.750;2023-03-16T05:13:03;8.63;;;6.15;;
60292;SDS011;52402;52.670;6.750;2023-03-16T05:15:29;11.23;;;6.60;;
60292;SDS011;52402;52.670;6.750;2023-03-16T05:17:55;7.72;;;5.72;;
60292;SDS011;52402;52.670;6.750;2023-03-16T05:20:22;8.07;;;6.30;;
60292;SDS011;52402;52.670;6.750;2023-03-16T05:22:48;9.23;;;6.07;;
60292;SDS011;52402;52.670;6.750;2023-03-16T05:25:14;9.57;;;6.00;;
60292;SDS011;52402;52.670;6.750;2023-03-16T05:27:44;8.75;;;6.00;;
60292;SDS011;52402;52.670;6.750;2023-03-16T05:30:12;9.93;;;6.00;;
60292;SDS011;52402;52.670;6.750;2023-03-16T05:32:40;8.43;;;6.38;;
60292;SDS011;52402;52.670;6.750;2023-03-16T05:35:06;8.30;;;5.85;;
60292;SDS011;52402;52.670;6.750;2023-03-16T05:37:32;7.88;;;5.57;;
60292;SDS011;52402;52.670;6.750;2023-03-16T05:40:02;10.05;;;6.53;;
60292;SDS011;52402;52.670;6.750;2023-03-16T05:42:47;8.85;;;6.07;;
60292;SDS011;52402;52.670;6.750;2023-03-16T05:45:18;8.65;;;5.75;;
60292;SDS011;52402;52.670;6.750;2023-03-16T05:47:44;8.98;;;5.88;;
60292;SDS011;52402;52.670;6.750;2023-03-16T05:50:13;9.13;;;6.03;;
60292;SDS011;52402;52.670;6.750;2023-03-16T05:52:41;8.60;;;6.20;;
60292;SDS011;52402;52.670;6.750;2023-03-16T05:55:08;9.35;;;6.05;;
60292;SDS011;52402;52.670;6.750;2023-03-16T05:57:35;9.63;;;6.22;;
60292;SDS011;52402;52.670;6.750;2023-03-16T06:00:02;8.07;;;5.75;;
60292;SDS011;52402;52.670;6.750;2023-03-16T06:02:37;9.38;;;5.72;;
60292;SDS011;52402;52.670;6.750;2023-03-16T06:05:03;10.07;;;6.28;;
60292;SDS011;52402;52.670;6.750;2023-03-16T06:07:28;8.57;;;5.90;;
60292;SDS011;52402;52.670;6.750;2023-03-16T06:09:54;11.07;;;6.00;;
60292;SDS011;52402;52.670;6.750;2023-03-16T06:12:20;9.13;;;5.50;;
60292;SDS011;52402;52.670;6.750;2023-03-16T06:14:45;10.48;;;6.00;;
60292;SDS011;52402;52.670;6.750;2023-03-16T06:17:11;9.10;;;6.18;;
60292;SDS011;52402;52.670;6.750;2023-03-16T06:19:36;7.47;;;5.50;;
60292;SDS011;52402;52.670;6.750;2023-03-16T06:22:02;8.35;;;5.60;;
60292;SDS011;52402;52.670;6.750;2023-03-16T06:24:27;9.07;;;6.07;;
60292;SDS011;52402;52.670;6.750;2023-03-16T06:26:53;8.65;;;6.28;;
60292;SDS011;52402;52.670;6.750;2023-03-16T06:29:19;9.20;;;6.03;;
60292;SDS011;52402;52.670;6.750;2023-03-16T06:31:44;8.57;;;5.95;;
60292;SDS011;52402;52.670;6.750;2023-03-16T06:34:10;11.85;;;5.93;;
60292;SDS011;52402;52.670;6.750;2023-03-16T06:36:35;10.13;;;6.13;;
60292;SDS011;52402;52.670;6.750;2023-03-16T06:39:03;8.57;;;6.85;;
60292;SDS011;52402;52.670;6.750;2023-03-16T06:41:29;9.30;;;6.20;;
60292;SDS011;52402;52.670;6.750;2023-03-16T06:43:55;7.32;;;5.50;;
60292;SDS011;52402;52.670;6.750;2023-03-16T06:46:21;8.13;;;6.45;;
60292;SDS011;52402;52.670;6.750;2023-03-16T06:48:47;8.35;;;5.68;;
60292;SDS011;52402;52.670;6.750;2023-03-16T06:51:12;7.95;;;5.55;;
60292;SDS011;52402;52.670;6.750;2023-03-16T06:53:38;8.20;;;5.97;;
60292;SDS011;52402;52.670;6.750;2023-03-16T06:56:04;8.40;;;5.45;;
60292;SDS011;52402;52.670;6.750;2023-03-16T06:58:29;8.05;;;5.68;;
60292;SDS011;52402;52.670;6.750;2023-03-16T07:00:55;8.05;;;6.00;;
60292;SDS011;52402;52.670;6.750;2023-03-16T07:03:20;9.05;;;5.97;;
60292;SDS011;52402;52.670;6.750;2023-03-16T07:05:46;8.38;;;6.35;;
60292;SDS011;52402;52.670;6.750;2023-03-16T07:08:12;8.88;;;5.75;;
60292;SDS011;52402;52.670;6.750;2023-03-16T07:10:39;9.00;;;6.05;;
60292;SDS011;52402;52.670;6.750;2023-03-16T07:13:04;8.48;;;5.35;;
60292;SDS011;52402;52.670;6.750;2023-03-16T07:15:30;7.75;;;5.90;;
60292;SDS011;52402;52.670;6.750;2023-03-16T07:17:56;8.27;;;5.97;;
60292;SDS011;52402;52.670;6.750;2023-03-16T07:20:21;8.23;;;5.80;;
60292;SDS011;52402;52.670;6.750;2023-03-16T07:22:48;7.80;;;5.40;;
60292;SDS011;52402;52.670;6.750;2023-03-16T07:25:14;9.68;;;6.28;;
60292;SDS011;52402;52.670;6.750;2023-03-16T07:27:39;8.95;;;5.50;;
60292;SDS011;52402;52.670;6.750;2023-03-16T07:30:07;9.75;;;5.88;;
60292;SDS011;52402;52.670;6.750;2023-03-16T07:32:36;8.35;;;5.78;;
60292;SDS011;52402;52.670;6.750;2023-03-16T07:35:01;9.70;;;5.88;;
60292;SDS011;52402;52.670;6.750;2023-03-16T07:37:27;8.50;;;6.60;;
60292;SDS011;52402;52.670;6.750;2023-03-16T07:39:52;8.13;;;5.80;;
60292;SDS011;52402;52.670;6.750;2023-03-16T07:42:19;9.35;;;6.20;;
60292;SDS011;52402;52.670;6.750;2023-03-16T07:44:46;8.40;;;5.55;;
60292;SDS011;52402;52.670;6.750;2023-03-16T07:47:12;8.60;;;5.88;;
60292;SDS011;52402;52.670;6.750;2023-03-16T07:49:38;7.63;;;6.20;;
60292;SDS011;52402;52.670;6.750;2023-03-16T07:52:05;8.93;;;5.70;;
60292;SDS011;52402;52.670;6.750;2023-03-16T07:54:31;8.77;;;5.80;;
60292;SDS011;52402;52.670;6.750;2023-03-16T07:56:57;9.25;;;5.90;;
60292;SDS011;52402;52.670;6.750;2023-03-16T07:59:23;9.43;;;6.45;;
60292;SDS011;52402;52.670;6.750;2023-03-16T08:01:50;8.77;;;5.95;;
60292;SDS011;52402;52.670;6.750;2023-03-16T08:04:15;9.63;;;6.25;;
60292;SDS011;52402;52.670;6.750;2023-03-16T08:06:41;7.88;;;6.13;;
60292;SDS011;52402;52.670;6.750;2023-03-16T08:09:07;9.02;;;6.35;;
60292;SDS011;52402;52.670;6.750;2023-03-16T08:11:33;7.70;;;6.32;;
60292;SDS011;52402;52.670;6.750;2023-03-16T08:13:58;10.20;;;6.80;;
60292;SDS011;52402;52.670;6.750;2023-03-16T08:16:24;10.27;;;6.90;;
60292;SDS011;52402;52.670;6.750;2023-03-16T08:18:51;8.48;;;6.10;;
60292;SDS011;52402;52.670;6.750;2023-03-16T08:21:20;9.65;;;6.80;;
60292;SDS011;52402;52.670;6.750;2023-03-16T08:23:46;8.38;;;6.47;;
60292;SDS011;52402;52.670;6.750;2023-03-16T08:26:16;8.43;;;7.00;;
60292;SDS011;52402;52.670;6.750;2023-03-16T08:28:43;9.20;;;6.72;;
60292;SDS011;52402;52.670;6.750;2023-03-16T08:31:13;9.60;;;6.90;;
60292;SDS011;52402;52.670;6.750;2023-03-16T08:33:42;10.48;;;6.65;;
60292;SDS011;52402;52.670;6.750;2023-03-16T08:36:11;9.70;;;6.93;;
60292;SDS011;52402;52.670;6.750;2023-03-16T08:38:39;9.65;;;7.18;;
60292;SDS011;52402;52.670;6.750;2023-03-16T08:41:05;10.45;;;7.40;;
60292;SDS011;52402;52.670;6.750;2023-03-16T08:43:32;11.23;;;7.47;;
60292;SDS011;52402;52.670;6.750;2023-03-16T08:45:57;9.15;;;7.60;;
60292;SDS011;52402;52.670;6.750;2023-03-16T08:48:24;8.95;;;6.72;;
60292;SDS011;52402;52.670;6.750;2023-03-16T08:50:50;10.90;;;7.40;;
60292;SDS011;52402;52.670;6.750;2023-03-16T08:53:17;8.85;;;7.45;;
60292;SDS011;52402;52.670;6.750;2023-03-16T08:55:46;10.75;;;7.78;;
60292;SDS011;52402;52.670;6.750;2023-03-16T08:58:12;9.13;;;7.35;;
60292;SDS011;52402;52.670;6.750;2023-03-16T09:00:39;9.65;;;7.72;;
60292;SDS011;52402;52.670;6.750;2023-03-16T09:03:05;10.55;;;7.60;;
60292;SDS011;52402;52.670;6.750;2023-03-16T09:05:31;9.52;;;7.80;;
60292;SDS011;52402;52.670;6.750;2023-03-16T09:07:58;12.10;;;7.85;;
60292;SDS011;52402;52.670;6.750;2023-03-16T09:10:25;9.43;;;7.65;;
60292;SDS011;52402;52.670;6.750;2023-03-16T09:12:51;9.88;;;8.05;;
60292;SDS011;52402;52.670;6.750;2023-03-16T09:15:18;10.27;;;7.72;;
60292;SDS011;52402;52.670;6.750;2023-03-16T09:17:45;10.85;;;7.85;;
60292;SDS011;52402;52.670;6.750;2023-03-16T09:20:12;10.40;;;7.63;;
60292;SDS011;52402;52.670;6.750;2023-03-16T09:22:40;11.25;;;7.90;;
60292;SDS011;52402;52.670;6.750;2023-03-16T09:25:06;9.70;;;7.88;;
60292;SDS011;52402;52.670;6.750;2023-03-16T09:27:34;11.43;;;7.80;;
60292;SDS011;52402;52.670;6.750;2023-03-16T09:30:03;11.52;;;8.50;;
60292;SDS011;52402;52.670;6.750;2023-03-16T09:32:30;11.70;;;7.90;;
60292;SDS011;52402;52.670;6.750;2023-03-16T09:34:57;10.77;;;8.57;;
60292;SDS011;52402;52.670;6.750;2023-03-16T09:37:23;10.88;;;7.93;;
60292;SDS011;52402;52.670;6.750;2023-03-16T09:39:50;10.70;;;8.13;;
60292;SDS011;52402;52.670;6.750;2023-03-16T09:42:24;11.00;;;8.02;;
60292;SDS011;52402;52.670;6.750;2023-03-16T09:47:50;9.93;;;8.65;;
60292;SDS011;52402;52.670;6.750;2023-03-16T09:55:34;12.65;;;8.88;;
60292;SDS011;52402;52.670;6.750;2023-03-16T09:58:05;12.05;;;8.55;;
60292;SDS011;52402;52.670;6.750;2023-03-16T10:01:00;13.35;;;9.38;;
60292;SDS011;52402;52.670;6.750;2023-03-16T10:06:39;13.18;;;9.05;;
60292;SDS011;52402;52.670;6.750;2023-03-16T10:09:24;14.38;;;9.88;;
60292;SDS011;52402;52.670;6.750;2023-03-16T10:11:57;11.45;;;9.30;;
60292;SDS011;52402;52.670;6.750;2023-03-16T10:19:38;11.25;;;9.05;;
60292;SDS011;52402;52.670;6.750;2023-03-16T10:27:43;12.45;;;8.68;;
60292;SDS011;52402;52.670;6.750;2023-03-16T10:30:30;10.43;;;8.00;;
60292;SDS011;52402;52.670;6.750;2023-03-16T10:33:02;11.35;;;8.70;;
60292;SDS011;52402;52.670;6.750;2023-03-16T10:35:45;13.00;;;8.23;;
60292;SDS011;52402;52.670;6.750;2023-03-16T10:38:27;13.98;;;8.05;;
60292;SDS011;52402;52.670;6.750;2023-03-16T10:43:48;12.80;;;8.27;;
60292;SDS011;52402;52.670;6.750;2023-03-16T10:46:16;11.40;;;7.85;;
60292;SDS011;52402;52.670;6.750;2023-03-16T10:48:50;12.85;;;8.07;;
60292;SDS011;52402;52.670;6.750;2023-03-16T10:51:17;10.70;;;7.53;;
60292;SDS011;52402;52.670;6.750;2023-03-16T10:53:49;11.65;;;7.85;;
60292;SDS011;52402;52.670;6.750;2023-03-16T10:56:20;10.70;;;6.93;;
60292;SDS011;52402;52.670;6.750;2023-03-16T10:58:47;11.15;;;7.15;;
60292;SDS011;52402;52.670;6.750;2023-03-16T11:01:21;11.27;;;8.05;;
60292;SDS011;52402;52.670;6.750;2023-03-16T11:03:51;10.35;;;7.40;;
60292;SDS011;52402;52.670;6.750;2023-03-16T11:06:23;10.93;;;6.88;;
60292;SDS011;52402;52.670;6.750;2023-03-16T11:09:40;9.13;;;6.68;;
60292;SDS011;52402;52.670;6.750;2023-03-16T11:11:49;11.27;;;6.93;;
60292;SDS011;52402;52.670;6.750;2023-03-16T11:14:18;8.82;;;6.47;;
60292;SDS011;52402;52.670;6.750;2023-03-16T11:17:00;9.13;;;6.50;;
60292;SDS011;52402;52.670;6.750;2023-03-16T11:19:34;9.05;;;5.95;;
60292;SDS011;52402;52.670;6.750;2023-03-16T11:27:55;9.13;;;6.10;;
60292;SDS011;52402;52.670;6.750;2023-03-16T11:30:40;10.68;;;6.47;;
60292;SDS011;52402;52.670;6.750;2023-03-16T11:33:25;10.43;;;6.03;;
60292;SDS011;52402;52.670;6.750;2023-03-16T11:41:46;9.75;;;6.13;;
60292;SDS011;52402;52.670;6.750;2023-03-16T11:46:55;9.02;;;6.18;;
60292;SDS011;52402;52.670;6.750;2023-03-16T11:50:04;10.38;;;6.05;;
60292;SDS011;52402;52.670;6.750;2023-03-16T11:55:53;7.95;;;5.70;;
60292;SDS011;52402;52.670;6.750;2023-03-16T12:04:27;9.27;;;6.00;;
60292;SDS011;52402;52.670;6.750;2023-03-16T12:10:29;8.05;;;5.57;;
60292;SDS011;52402;52.670;6.750;2023-03-16T12:13:03;7.80;;;5.55;;
60292;SDS011;52402;52.670;6.750;2023-03-16T12:18:51;7.63;;;5.28;;
60292;SDS011;52402;52.670;6.750;2023-03-16T12:23:59;7.57;;;5.60;;
60292;SDS011;52402;52.670;6.750;2023-03-16T12:26:29;7.32;;;5.50;;
60292;SDS011;52402;52.670;6.750;2023-03-16T12:29:00;8.73;;;5.60;;
60292;SDS011;52402;52.670;6.750;2023-03-16T12:31:41;7.97;;;5.20;;
60292;SDS011;52402;52.670;6.750;2023-03-16T12:51:01;9.50;;;5.78;;
60292;SDS011;52402;52.670;6.750;2023-03-16T12:56:04;8.00;;;5.18;;
60292;SDS011;52402;52.670;6.750;2023-03-16T12:58:34;8.60;;;5.60;;
60292;SDS011;52402;52.670;6.750;2023-03-16T13:01:00;9.00;;;5.50;;
60292;SDS011;52402;52.670;6.750;2023-03-16T13:03:27;7.15;;;5.45;;
60292;SDS011;52402;52.670;6.750;2023-03-16T13:05:57;8.02;;;5.22;;
60292;SDS011;52402;52.670;6.750;2023-03-16T13:08:24;8.73;;;5.72;;
60292;SDS011;52402;52.670;6.750;2023-03-16T13:11:08;8.70;;;5.72;;
60292;SDS011;52402;52.670;6.750;2023-03-16T13:13:46;7.78;;;5.30;;
60292;SDS011;52402;52.670;6.750;2023-03-16T13:16:24;8.05;;;5.75;;
60292;SDS011;52402;52.670;6.750;2023-03-16T13:18:52;8.27;;;5.35;;
60292;SDS011;52402;52.670;6.750;2023-03-16T13:21:38;7.32;;;5.18;;
60292;SDS011;52402;52.670;6.750;2023-03-16T13:26:54;9.23;;;5.53;;
60292;SDS011;52402;52.670;6.750;2023-03-16T13:29:27;8.20;;;5.28;;
60292;SDS011;52402;52.670;6.750;2023-03-16T13:32:07;8.82;;;5.47;;
60292;SDS011;52402;52.670;6.750;2023-03-16T13:34:45;7.70;;;5.40;;
60292;SDS011;52402;52.670;6.750;2023-03-16T13:37:14;7.97;;;5.53;;
60292;SDS011;52402;52.670;6.750;2023-03-16T13:39:50;8.35;;;5.22;;
60292;SDS011;52402;52.670;6.750;2023-03-16T13:42:20;6.97;;;5.03;;
60292;SDS011;52402;52.670;6.750;2023-03-16T13:44:47;8.00;;;5.35;;
60292;SDS011;52402;52.670;6.750;2023-03-16T13:47:17;8.85;;;5.30;;
60292;SDS011;52402;52.670;6.750;2023-03-16T13:52:36;7.95;;;5.20;;
60292;SDS011;52402;52.670;6.750;2023-03-16T13:55:05;9.35;;;5.72;;
60292;SDS011;52402;52.670;6.750;2023-03-16T13:57:38;8.43;;;5.20;;
60292;SDS011;52402;52.670;6.750;2023-03-16T14:00:16;8.57;;;5.25;;
60292;SDS011;52402;52.670;6.750;2023-03-16T14:02:45;8.35;;;5.43;;
60292;SDS011;52402;52.670;6.750;2023-03-16T14:05:16;8.57;;;5.00;;
60292;SDS011;52402;52.670;6.750;2023-03-16T14:10:12;7.22;;;4.80;;
60292;SDS011;52402;52.670;6.750;2023-03-16T14:12:57;8.43;;;4.60;;
60292;SDS011;52402;52.670;6.750;2023-03-16T14:15:46;8.75;;;4.82;;
60292;SDS011;52402;52.670;6.750;2023-03-16T14:18:57;6.72;;;4.90;;
60292;SDS011;52402;52.670;6.750;2023-03-16T14:21:14;6.72;;;4.90;;
60292;SDS011;52402;52.670;6.750;2023-03-16T14:23:45;7.53;;;4.75;;
60292;SDS011;52402;52.670;6.750;2023-03-16T14:26:13;7.30;;;4.40;;
60292;SDS011;52402;52.670;6.750;2023-03-16T14:28:40;7.43;;;4.60;;
60292;SDS011;52402;52.670;6.750;2023-03-16T14:34:29;6.97;;;4.50;;
60292;SDS011;52402;52.670;6.750;2023-03-16T14:37:04;8.18;;;4.57;;
60292;SDS011;52402;52.670;6.750;2023-03-16T14:39:35;7.57;;;4.55;;
60292;SDS011;52402;52.670;6.750;2023-03-16T14:42:02;7.82;;;4.95;;
60292;SDS011;52402;52.670;6.750;2023-03-16T14:44:30;6.32;;;4.10;;
60292;SDS011;52402;52.670;6.750;2023-03-16T14:46:58;17.10;;;5.57;;
60292;SDS011;52402;52.670;6.750;2023-03-16T14:52:02;7.40;;;4.43;;
60292;SDS011;52402;52.670;6.750;2023-03-16T14:54:31;6.40;;;4.32;;
60292;SDS011;52402;52.670;6.750;2023-03-16T14:56:58;8.32;;;4.65;;
60292;SDS011;52402;52.670;6.750;2023-03-16T14:59:26;7.07;;;3.97;;
60292;SDS011;52402;52.670;6.750;2023-03-16T15:01:52;7.07;;;4.60;;
60292;SDS011;52402;52.670;6.750;2023-03-16T15:04:27;8.88;;;4.80;;
60292;SDS011;52402;52.670;6.750;2023-03-16T15:06:58;6.65;;;4.13;;
60292;SDS011;52402;52.670;6.750;2023-03-16T15:09:33;7.72;;;4.40;;
60292;SDS011;52402;52.670;6.750;2023-03-16T15:12:10;6.90;;;3.90;;
60292;SDS011;52402;52.670;6.750;2023-03-16T15:14:42;8.70;;;4.55;;
60292;SDS011;52402;52.670;6.750;2023-03-16T15:17:27;7.68;;;4.38;;
60292;SDS011;52402;52.670;6.750;2023-03-16T15:19:53;6.53;;;4.30;;
60292;SDS011;52402;52.670;6.750;2023-03-16T15:22:29;7.22;;;4.57;;
60292;SDS011;52402;52.670;6.750;2023-03-16T15:24:56;7.18;;;4.40;;
60292;SDS011;52402;52.670;6.750;2023-03-16T15:27:25;7.07;;;4.25;;
60292;SDS011;52402;52.670;6.750;2023-03-16T15:29:55;7.18;;;4.13;;
60292;SDS011;52402;52.670;6.750;2023-03-16T15:32:21;7.55;;;4.30;;
60292;SDS011;52402;52.670;6.750;2023-03-16T15:34:47;5.95;;;4.15;;
60292;SDS011;52402;52.670;6.750;2023-03-16T15:37:17;8.60;;;4.20;;
60292;SDS011;52402;52.670;6.750;2023-03-16T15:42:16;7.35;;;3.95;;
60292;SDS011;52402;52.670;6.750;2023-03-16T15:44:43;7.50;;;4.07;;
60292;SDS011;52402;52.670;6.750;2023-03-16T15:47:10;6.18;;;3.83;;
60292;SDS011;52402;52.670;6.750;2023-03-16T15:49:36;6.32;;;3.92;;
60292;SDS011;52402;52.670;6.750;2023-03-16T15:52:03;8.13;;;3.92;;
60292;SDS011;52402;52.670;6.750;2023-03-16T15:54:32;6.70;;;4.10;;
60292;SDS011;52402;52.670;6.750;2023-03-16T15:57:00;6.60;;;3.95;;
60292;SDS011;52402;52.670;6.750;2023-03-16T15:59:29;7.35;;;3.70;;
60292;SDS011;52402;52.670;6.750;2023-03-16T16:01:58;7.18;;;3.83;;
60292;SDS011;52402;52.670;6.750;2023-03-16T16:04:24;6.93;;;4.20;;
60292;SDS011;52402;52.670;6.750;2023-03-16T16:06:50;8.13;;;3.40;;
60292;SDS011;52402;52.670;6.750;2023-03-16T16:11:46;8.05;;;3.90;;
60292;SDS011;52402;52.670;6.750;2023-03-16T16:14:15;6.07;;;3.72;;
60292;SDS011;52402;52.670;6.750;2023-03-16T16:16:43;8.05;;;3.80;;
60292;SDS011;52402;52.670;6.750;2023-03-16T16:19:16;6.25;;;3.30;;
60292;SDS011;52402;52.670;6.750;2023-03-16T16:21:43;7.78;;;3.53;;
60292;SDS011;52402;52.670;6.750;2023-03-16T16:24:08;6.85;;;3.65;;
60292;SDS011;52402;52.670;6.750;2023-03-16T16:26:38;8.88;;;3.60;;
60292;SDS011;52402;52.670;6.750;2023-03-16T16:29:28;6.82;;;3.85;;
60292;SDS011;52402;52.670;6.750;2023-03-16T16:31:57;6.82;;;3.90;;
60292;SDS011;52402;52.670;6.750;2023-03-16T16:34:24;6.82;;;3.70;;
60292;SDS011;52402;52.670;6.750;2023-03-16T16:36:51;6.40;;;3.53;;
60292;SDS011;52402;52.670;6.750;2023-03-16T16:39:18;6.07;;;3.70;;
60292;SDS011;52402;52.670;6.750;2023-03-16T16:41:44;5.50;;;3.30;;
60292;SDS011;52402;52.670;6.750;2023-03-16T16:44:17;8.45;;;3.60;;
60292;SDS011;52402;52.670;6.750;2023-03-16T16:46:48;7.05;;;3.55;;